Time;durP1;ratioP1;P1;durP2;ratioP2;P2;SDS_P1;SDS_P2;PMS_P1;PMS_P2;Temp;Humidity;BMP_temperature;BMP_pressure;BME280_temperature;BME280_humidity;BME280_pressure;Samples;Min_cycle;Max_cycle;Signal;HPM_P1;HPM_P2
2023/02/21 02:13:46;;;;;;;66.97;45.72;;;10.10;99.90;;;;;;2043895;29;20459;-73
2023/02/21 02:15:15;;;;;;;65.10;48.47;;;10.10;99.90;;;;;;2044785;28;20090;-73
2023/02/21 02:16:30;;;;;;;69.07;48.88;;;10.10;99.90;;;;;;2045413;28;20054;-73
2023/02/21 02:18:04;;;;;;;64.55;47.65;;;10.10;99.90;;;;;;2043971;28;20502;-73
2023/02/21 02:19:42;;;;;;;65.00;46.47;;;10.10;99.90;;;;;;2043479;28;20062;-73
2023/02/21 02:21:01;;;;;;;67.97;49.10;;;10.10;99.90;;;;;;2043386;28;20028;-73
2023/02/21 02:22:55;;;;;;;69.63;49.97;;;10.10;99.90;;;;;;2042637;28;20098;-73
2023/02/21 02:24:14;;;;;;;64.53;48.55;;;10.10;99.90;;;;;;2043175;28;20039;-73
2023/02/21 02:25:34;;;;;;;66.38;49.47;;;10.00;99.90;;;;;;2043713;28;20027;-73
2023/02/21 02:27:15;;;;;;;66.40;48.63;;;10.10;99.90;;;;;;2045137;28;20028;-73
2023/02/21 02:28:25;;;;;;;69.78;48.25;;;10.10;99.90;;;;;;2045167;29;20093;-73
2023/02/21 02:29:37;;;;;;;65.95;48.25;;;10.10;99.90;;;;;;2044862;28;20072;-73
2023/02/21 02:30:51;;;;;;;64.65;47.83;;;10.10;99.90;;;;;;2046233;28;20035;-73
2023/02/21 02:32:20;;;;;;;65.78;48.08;;;10.10;99.90;;;;;;2044653;28;20529;-73
2023/02/21 02:33:40;;;;;;;62.53;48.88;;;10.10;99.90;;;;;;2044091;28;20043;-73
2023/02/21 02:35:11;;;;;;;71.55;47.03;;;10.10;99.90;;;;;;2044094;28;20114;-73
2023/02/21 02:36:33;;;;;;;67.40;48.65;;;10.10;99.90;;;;;;2042597;29;20110;-73
2023/02/21 02:37:52;;;;;;;67.45;48.97;;;10.10;99.90;;;;;;2043027;28;20879;-73
2023/02/21 02:39:22;;;;;;;65.18;47.75;;;10.20;99.90;;;;;;2046357;28;20031;-73
2023/02/21 02:40:31;;;;;;;67.38;49.53;;;10.10;99.90;;;;;;2036995;28;20037;-73
2023/02/21 02:42:07;;;;;;;66.38;49.47;;;10.10;99.90;;;;;;2044302;28;20031;-73
2023/02/21 02:43:14;;;;;;;70.72;47.28;;;10.10;99.90;;;;;;2044131;28;20387;-73
2023/02/21 02:44:23;;;;;;;70.07;49.10;;;10.10;99.90;;;;;;2043896;29;20521;-73
2023/02/21 02:45:45;;;;;;;65.22;48.13;;;10.10;99.90;;;;;;2044082;28;20431;-73
2023/02/21 02:46:48;;;;;;;67.53;47.90;;;10.10;99.90;;;;;;2044818;28;20365;-73
2023/02/21 02:47:54;;;;;;;66.72;48.92;;;10.10;99.90;;;;;;2043556;28;20028;-73
2023/02/21 02:48:59;;;;;;;68.28;48.50;;;10.10;99.90;;;;;;2044857;28;20546;-73
2023/02/21 02:50:02;;;;;;;66.20;47.90;;;10.10;99.90;;;;;;2043725;28;20030;-73
2023/02/21 02:51:07;;;;;;;68.55;51.38;;;10.10;99.90;;;;;;2044532;28;20028;-73
2023/02/21 02:52:09;;;;;;;67.30;47.40;;;10.10;99.90;;;;;;2043925;28;20023;-73
2023/02/21 02:53:09;;;;;;;63.40;46.35;;;10.10;99.90;;;;;;2045099;28;20027;-73
2023/02/21 02:54:10;;;;;;;66.25;46.70;;;10.10;99.90;;;;;;2044926;28;20043;-73
2023/02/21 02:55:38;;;;;;;66.55;48.95;;;10.10;99.90;;;;;;2044471;28;20039;-73
2023/02/21 02:56:38;;;;;;;67.25;48.47;;;10.10;99.90;;;;;;2045207;28;20062;-73
2023/02/21 02:57:43;;;;;;;64.15;47.60;;;10.10;99.90;;;;;;2035691;29;20031;-73
2023/02/21 02:58:48;;;;;;;65.22;47.67;;;10.10;99.90;;;;;;2029008;29;20025;-73
2023/02/21 02:59:49;;;;;;;68.53;48.63;;;10.10;99.90;;;;;;2038081;29;20413;-73
2023/02/21 03:01:16;;;;;;;64.30;49.33;;;10.10;99.90;;;;;;2045231;28;20054;-73
2023/02/21 03:02:29;;;;;;;63.25;47.03;;;10.10;99.90;;;;;;2043919;28;20027;-73
2023/02/21 03:03:36;;;;;;;65.78;47.92;;;10.10;99.90;;;;;;2044775;28;20023;-73
2023/02/21 03:05:02;;;;;;;64.80;47.00;;;10.10;99.90;;;;;;2044355;29;20403;-73
2023/02/21 03:06:22;;;;;;;70.07;48.35;;;10.10;99.90;;;;;;2044759;28;20555;-73
2023/02/21 03:07:55;;;;;;;64.65;48.60;;;10.10;99.90;;;;;;2036267;29;20431;-73
2023/02/21 03:09:18;;;;;;;68.57;50.22;;;10.00;99.90;;;;;;2039907;28;20061;-73
2023/02/21 03:10:27;;;;;;;66.85;49.67;;;10.00;99.90;;;;;;2043487;29;20099;-73
2023/02/21 03:11:27;;;;;;;72.47;50.63;;;10.00;99.90;;;;;;2045456;28;20391;-73
2023/02/21 03:12:58;;;;;;;73.13;50.78;;;10.10;99.90;;;;;;2044551;28;20054;-73
2023/02/21 03:14:12;;;;;;;71.55;51.50;;;10.10;99.90;;;;;;2045604;28;20047;-74
2023/02/21 03:15:32;;;;;;;71.75;52.22;;;10.10;99.90;;;;;;2042277;28;20697;-73
2023/02/21 03:16:40;;;;;;;68.63;50.67;;;10.10;99.90;;;;;;2043470;28;20036;-73
2023/02/21 03:17:45;;;;;;;63.38;49.47;;;10.10;99.90;;;;;;2043703;28;20042;-73
2023/02/21 03:18:50;;;;;;;68.28;50.25;;;10.10;99.90;;;;;;2035372;29;20047;-73
2023/02/21 03:19:53;;;;;;;70.07;48.60;;;10.10;99.90;;;;;;2034946;29;20020;-73
2023/02/21 03:20:57;;;;;;;73.75;52.15;;;10.10;99.90;;;;;;2041856;28;20030;-73
2023/02/21 03:22:02;;;;;;;70.35;50.60;;;10.10;99.90;;;;;;2044043;28;20019;-73
2023/02/21 03:23:04;;;;;;;67.30;50.05;;;10.10;99.90;;;;;;2045417;28;20030;-73
2023/02/21 03:24:09;;;;;;;69.10;50.58;;;10.10;99.90;;;;;;2044746;28;20103;-73
2023/02/21 03:25:11;;;;;;;68.80;49.95;;;10.10;99.90;;;;;;2045969;28;20019;-73
2023/02/21 03:26:14;;;;;;;63.92;48.53;;;10.10;99.90;;;;;;2044728;29;20078;-73
2023/02/21 03:27:16;;;;;;;76.20;51.20;;;10.20;99.90;;;;;;2044595;28;20024;-73
2023/02/21 03:28:18;;;;;;;67.35;48.15;;;10.10;99.90;;;;;;2045590;29;20055;-73
2023/02/21 03:29:19;;;;;;;65.50;48.42;;;10.20;99.90;;;;;;2044384;28;20476;-73
2023/02/21 03:30:20;;;;;;;65.50;48.17;;;10.20;99.90;;;;;;2044358;28;20046;-73
2023/02/21 03:31:26;;;;;;;64.80;48.55;;;10.20;99.90;;;;;;2044313;28;20054;-73
2023/02/21 03:33:32;;;;;;;65.55;47.80;;;10.20;99.90;;;;;;2045466;28;20059;-73
2023/02/21 03:34:33;;;;;;;66.45;48.90;;;10.20;99.90;;;;;;2043293;28;20038;-73
2023/02/21 03:35:33;;;;;;;62.97;47.63;;;10.20;99.90;;;;;;2043756;28;20075;-73
2023/02/21 03:36:36;;;;;;;61.28;47.83;;;10.20;99.90;;;;;;2044736;29;20992;-73
2023/02/21 03:37:40;;;;;;;64.00;48.50;;;10.20;99.90;;;;;;2045367;28;20027;-74
2023/02/21 03:38:41;;;;;;;62.38;48.22;;;10.20;99.90;;;;;;2045736;28;20027;-73
2023/02/21 03:39:41;;;;;;;65.38;45.97;;;10.20;99.90;;;;;;2043886;28;20028;-74
2023/02/21 03:40:42;;;;;;;63.00;49.08;;;10.20;99.90;;;;;;2044791;28;20174;-73
2023/02/21 03:41:43;;;;;;;63.83;49.22;;;10.20;99.90;;;;;;2043558;28;20027;-73
2023/02/21 03:42:43;;;;;;;67.38;48.47;;;10.20;99.90;;;;;;2044988;28;20033;-73
2023/02/21 03:43:44;;;;;;;64.10;48.58;;;10.20;99.90;;;;;;2043800;29;20896;-73
2023/02/21 03:44:44;;;;;;;66.80;47.65;;;10.20;99.90;;;;;;2045152;28;20027;-73
2023/02/21 03:45:45;;;;;;;64.05;46.65;;;10.20;99.90;;;;;;2044394;28;20043;-73
2023/02/21 03:46:45;;;;;;;63.67;47.72;;;10.20;99.90;;;;;;2045445;28;20031;-73
2023/02/21 03:47:46;;;;;;;61.83;47.55;;;10.20;99.90;;;;;;2043710;28;20808;-73
2023/02/21 03:48:47;;;;;;;66.05;48.45;;;10.20;99.90;;;;;;2045198;28;20056;-73
2023/02/21 03:49:47;;;;;;;63.75;48.38;;;10.20;99.90;;;;;;2045251;28;20034;-73
2023/02/21 03:50:48;;;;;;;63.22;48.33;;;10.20;99.90;;;;;;2044218;29;20110;-73
2023/02/21 03:51:48;;;;;;;62.92;48.15;;;10.20;99.90;;;;;;2042757;28;20040;-73
2023/02/21 03:52:49;;;;;;;63.47;46.65;;;10.20;99.90;;;;;;2044136;29;20938;-73
2023/02/21 03:53:49;;;;;;;62.65;47.00;;;10.20;99.90;;;;;;2040810;28;20023;-73
2023/02/21 03:54:50;;;;;;;62.08;45.80;;;10.20;99.90;;;;;;2044297;29;20038;-73
2023/02/21 03:55:50;;;;;;;66.78;48.40;;;10.20;99.90;;;;;;2044519;28;20063;-73
2023/02/21 03:56:51;;;;;;;64.65;47.78;;;10.20;99.90;;;;;;2044554;28;20038;-73
2023/02/21 03:57:51;;;;;;;64.85;46.17;;;10.20;99.90;;;;;;2035921;29;20377;-73
2023/02/21 03:58:52;;;;;;;61.65;46.50;;;10.20;99.90;;;;;;2036836;29;20024;-73
2023/02/21 03:59:53;;;;;;;60.85;46.63;;;10.20;99.90;;;;;;2044211;28;20040;-73
2023/02/21 04:00:53;;;;;;;65.00;46.95;;;10.20;99.90;;;;;;2043686;29;20114;-73
2023/02/21 04:01:54;;;;;;;60.45;46.08;;;10.20;99.90;;;;;;2043683;28;20035;-73
2023/02/21 04:02:55;;;;;;;63.75;47.78;;;10.20;99.90;;;;;;2044582;28;20031;-73
2023/02/21 04:03:55;;;;;;;64.38;46.70;;;10.20;99.90;;;;;;2045167;28;20062;-73
2023/02/21 04:04:56;;;;;;;61.08;47.15;;;10.20;99.90;;;;;;2043885;28;20518;-73
2023/02/21 04:05:56;;;;;;;68.18;47.92;;;10.20;99.90;;;;;;2044316;28;20030;-73
2023/02/21 04:06:57;;;;;;;65.63;48.70;;;10.20;99.90;;;;;;2045505;28;20023;-73
2023/02/21 04:07:58;;;;;;;71.10;49.50;;;10.20;99.90;;;;;;2043311;29;20455;-73
2023/02/21 04:08:58;;;;;;;62.25;47.58;;;10.20;99.90;;;;;;2044349;28;20035;-73
2023/02/21 04:09:59;;;;;;;62.75;47.38;;;10.20;99.90;;;;;;2043006;28;20059;-73
2023/02/21 04:10:59;;;;;;;70.03;48.13;;;10.20;99.90;;;;;;2043830;29;20046;-73
2023/02/21 04:12:00;;;;;;;64.57;47.70;;;10.10;99.90;;;;;;2043242;28;20039;-73
2023/02/21 04:13:00;;;;;;;61.40;48.10;;;10.10;99.90;;;;;;2045387;28;20051;-73
2023/02/21 04:14:03;;;;;;;62.70;47.42;;;10.10;99.90;;;;;;2035233;29;20032;-73
2023/02/21 04:15:04;;;;;;;64.75;47.80;;;10.10;99.90;;;;;;2035880;29;20683;-73
2023/02/21 04:16:04;;;;;;;63.10;47.20;;;10.10;99.90;;;;;;2043572;28;20390;-73
2023/02/21 04:17:05;;;;;;;65.38;48.95;;;10.10;99.90;;;;;;2045593;28;20435;-73
2023/02/21 04:18:05;;;;;;;65.15;48.78;;;10.10;99.90;;;;;;2043346;28;20031;-73
2023/02/21 04:19:06;;;;;;;69.10;50.30;;;10.10;99.90;;;;;;2044632;29;20138;-73
2023/02/21 04:20:07;;;;;;;62.53;48.05;;;10.10;99.90;;;;;;2043093;28;20031;-73
2023/02/21 04:21:07;;;;;;;68.10;49.50;;;10.10;99.90;;;;;;2042163;28;20907;-73
2023/02/21 04:22:08;;;;;;;64.10;46.80;;;10.10;99.90;;;;;;2043409;29;20088;-73
2023/02/21 04:23:08;;;;;;;66.40;46.80;;;10.10;99.90;;;;;;2043687;28;20403;-73
2023/02/21 04:24:09;;;;;;;62.97;48.67;;;10.10;99.90;;;;;;2043164;28;20106;-73
2023/02/21 04:25:09;;;;;;;63.00;46.30;;;10.10;99.90;;;;;;2036763;29;20383;-73
2023/02/21 04:26:10;;;;;;;63.28;46.55;;;10.10;99.90;;;;;;2030171;29;20016;-73
2023/02/21 04:27:10;;;;;;;61.63;46.10;;;10.10;99.90;;;;;;2036448;29;20161;-73
2023/02/21 04:28:11;;;;;;;61.58;46.75;;;10.10;99.90;;;;;;2045343;28;20034;-73
2023/02/21 04:29:11;;;;;;;61.75;46.22;;;10.10;99.90;;;;;;2045217;28;20455;-73
2023/02/21 04:30:12;;;;;;;59.63;44.33;;;10.10;99.90;;;;;;2043324;28;20118;-73
2023/02/21 04:31:15;;;;;;;57.80;44.88;;;10.10;99.90;;;;;;2042078;28;20027;-73
2023/02/21 04:32:15;;;;;;;61.85;47.33;;;10.10;99.90;;;;;;2042796;29;20027;-73
2023/02/21 04:33:16;;;;;;;62.28;47.40;;;10.10;99.90;;;;;;2034993;29;20032;-73
2023/02/21 04:34:16;;;;;;;58.17;43.75;;;10.10;99.90;;;;;;2026004;29;20492;-73
2023/02/21 04:35:17;;;;;;;63.33;45.75;;;10.20;99.90;;;;;;2036547;29;20032;-73
2023/02/21 04:36:17;;;;;;;58.75;44.20;;;10.10;99.90;;;;;;2042931;29;20036;-73
2023/02/21 04:37:18;;;;;;;61.65;46.70;;;10.10;99.90;;;;;;2043895;28;20455;-73
2023/02/21 04:38:19;;;;;;;60.47;47.20;;;10.10;99.90;;;;;;2043369;29;20129;-73
2023/02/21 04:39:20;;;;;;;60.30;46.03;;;10.10;99.90;;;;;;2044125;28;20123;-73
2023/02/21 04:40:20;;;;;;;64.55;48.17;;;10.10;99.90;;;;;;2043421;29;20016;-73
2023/02/21 04:41:22;;;;;;;59.88;45.20;;;10.10;99.90;;;;;;2043244;28;20031;-73
2023/02/21 04:42:22;;;;;;;57.33;44.55;;;10.10;99.90;;;;;;2044304;28;20031;-73
2023/02/21 04:43:23;;;;;;;58.58;46.03;;;10.10;99.90;;;;;;2044420;28;20423;-73
2023/02/21 04:44:23;;;;;;;61.22;46.72;;;10.10;99.90;;;;;;2043918;29;20365;-74
2023/02/21 04:45:24;;;;;;;62.50;47.80;;;10.10;99.90;;;;;;2044449;28;20031;-73
2023/02/21 04:46:24;;;;;;;62.08;45.33;;;10.10;99.90;;;;;;2044420;28;20464;-73
2023/02/21 04:47:25;;;;;;;65.68;46.80;;;10.10;99.90;;;;;;2035359;29;20123;-73
2023/02/21 04:48:25;;;;;;;63.15;46.28;;;10.10;99.90;;;;;;2035757;29;20124;-73
2023/02/21 04:49:26;;;;;;;61.83;47.63;;;10.10;99.90;;;;;;2043786;29;20039;-73
2023/02/21 04:50:27;;;;;;;59.83;47.25;;;10.10;99.90;;;;;;2041088;28;20032;-73
2023/02/21 04:51:28;;;;;;;65.13;48.67;;;10.10;99.90;;;;;;2043855;28;20035;-73
2023/02/21 04:52:28;;;;;;;63.47;47.45;;;10.10;99.90;;;;;;2043021;29;20020;-73
2023/02/21 04:53:29;;;;;;;62.90;46.60;;;10.10;99.90;;;;;;2042224;28;20035;-73
2023/02/21 04:54:29;;;;;;;67.47;49.53;;;10.10;99.90;;;;;;2044401;29;20055;-73
2023/02/21 04:55:30;;;;;;;62.20;46.85;;;10.10;99.90;;;;;;2043742;28;20123;-73
2023/02/21 04:56:31;;;;;;;66.78;48.45;;;10.10;99.90;;;;;;2044770;28;20383;-73
2023/02/21 04:57:31;;;;;;;61.97;47.97;;;10.10;99.90;;;;;;2035763;29;20082;-73
2023/02/21 04:58:32;;;;;;;66.93;48.85;;;10.10;99.90;;;;;;2028434;29;20035;-73
2023/02/21 04:59:33;;;;;;;65.32;48.10;;;10.10;99.90;;;;;;2036140;29;20028;-73
2023/02/21 05:00:33;;;;;;;61.63;47.33;;;10.10;99.90;;;;;;2044779;28;20027;-73
2023/02/21 05:01:34;;;;;;;64.45;48.72;;;10.10;99.90;;;;;;2032288;29;20028;-73
2023/02/21 05:02:35;;;;;;;65.93;49.58;;;10.00;99.90;;;;;;2035254;29;20036;-73
2023/02/21 05:03:35;;;;;;;64.95;48.25;;;10.00;99.90;;;;;;2042818;28;20019;-73
2023/02/21 05:04:36;;;;;;;66.15;47.80;;;10.00;99.90;;;;;;2044406;28;20039;-73
2023/02/21 05:05:36;;;;;;;65.32;48.35;;;10.00;99.90;;;;;;2042026;28;20031;-73
2023/02/21 05:06:37;;;;;;;70.30;49.92;;;10.00;99.90;;;;;;2042978;29;20030;-73
2023/02/21 05:07:40;;;;;;;73.03;50.55;;;10.00;99.90;;;;;;2044325;28;20058;-73
2023/02/21 05:08:41;;;;;;;62.45;46.70;;;10.00;99.90;;;;;;2043775;28;20046;-73
2023/02/21 05:09:41;;;;;;;69.03;47.67;;;10.10;99.90;;;;;;2041288;28;20027;-73
2023/02/21 05:10:42;;;;;;;66.03;48.25;;;10.10;99.90;;;;;;2045063;28;20031;-73
2023/02/21 05:11:42;;;;;;;63.72;45.40;;;10.10;99.90;;;;;;2043420;28;20031;-73
2023/02/21 05:12:43;;;;;;;60.03;46.83;;;10.10;99.90;;;;;;2043427;28;20027;-73
2023/02/21 05:13:45;;;;;;;68.10;50.22;;;10.10;99.90;;;;;;2042909;28;20074;-73
2023/02/21 05:14:45;;;;;;;68.60;48.28;;;10.10;99.90;;;;;;2043929;28;20035;-73
2023/02/21 05:15:46;;;;;;;68.00;49.72;;;10.10;99.90;;;;;;2036154;29;20060;-73
2023/02/21 05:16:46;;;;;;;67.55;48.08;;;10.10;99.90;;;;;;2035450;29;20036;-73
2023/02/21 05:17:47;;;;;;;67.00;48.78;;;10.10;99.90;;;;;;2034619;29;20131;-73
2023/02/21 05:18:48;;;;;;;67.50;48.83;;;10.10;99.90;;;;;;2036201;29;20068;-73
2023/02/21 05:19:48;;;;;;;67.65;48.10;;;10.10;99.90;;;;;;2040668;29;20031;-73
2023/02/21 05:20:49;;;;;;;74.18;48.90;;;10.10;99.90;;;;;;2043783;28;20016;-74
2023/02/21 05:21:49;;;;;;;68.03;50.42;;;10.10;99.90;;;;;;2044512;28;20419;-73
2023/02/21 05:22:50;;;;;;;67.60;49.00;;;10.10;99.90;;;;;;2043701;28;20053;-73
2023/02/21 05:23:56;;;;;;;69.30;48.50;;;10.10;99.90;;;;;;2042409;28;20038;-73
2023/02/21 05:24:57;;;;;;;71.88;48.58;;;10.10;99.90;;;;;;2043014;29;20020;-73
2023/02/21 05:25:58;;;;;;;66.97;47.65;;;10.10;99.90;;;;;;2041448;28;20020;-73
2023/02/21 05:26:59;;;;;;;73.07;49.10;;;10.10;99.90;;;;;;2042464;28;20035;-73
2023/02/21 05:27:59;;;;;;;70.03;48.17;;;10.10;99.90;;;;;;2033735;29;20028;-73
2023/02/21 05:29:01;;;;;;;67.78;49.00;;;10.10;99.90;;;;;;2035177;29;20024;-73
2023/02/21 05:30:02;;;;;;;68.38;47.88;;;10.10;99.90;;;;;;2043421;28;20372;-73
2023/02/21 05:31:02;;;;;;;72.03;48.53;;;10.10;99.90;;;;;;2045111;28;20135;-73
2023/02/21 05:32:03;;;;;;;72.03;49.22;;;10.10;99.90;;;;;;2043545;28;20020;-73
2023/02/21 05:33:04;;;;;;;75.10;49.78;;;10.10;99.90;;;;;;2042357;29;20122;-73
2023/02/21 05:34:04;;;;;;;71.97;49.10;;;10.10;99.90;;;;;;2043166;28;20035;-73
2023/02/21 05:35:05;;;;;;;67.80;48.55;;;10.00;99.90;;;;;;2034456;29;20106;-73
2023/02/21 05:36:06;;;;;;;73.45;48.88;;;10.00;99.90;;;;;;2035027;29;20098;-73
2023/02/21 05:37:07;;;;;;;71.68;50.35;;;10.00;99.90;;;;;;2043399;28;20050;-73
2023/02/21 05:38:07;;;;;;;73.07;50.80;;;10.00;99.90;;;;;;2044918;28;20038;-73
2023/02/21 05:39:08;;;;;;;79.93;50.95;;;10.00;99.90;;;;;;2042013;28;20033;-73
2023/02/21 05:40:11;;;;;;;72.05;49.83;;;10.00;99.90;;;;;;2034487;29;20800;-73
2023/02/21 05:41:12;;;;;;;77.15;51.08;;;10.00;99.90;;;;;;2033812;29;20020;-73
2023/02/21 05:42:12;;;;;;;75.30;50.40;;;10.00;99.90;;;;;;2043297;28;20024;-73
2023/02/21 05:43:14;;;;;;;73.70;49.13;;;10.10;99.90;;;;;;2042381;28;20027;-73
2023/02/21 05:44:15;;;;;;;75.30;52.05;;;10.00;99.90;;;;;;2041366;28;20075;-73
2023/02/21 05:45:15;;;;;;;71.60;49.17;;;10.00;99.90;;;;;;2043345;28;20019;-73
2023/02/21 05:46:36;;;;;;;74.45;50.65;;;10.10;99.90;;;;;;2044525;28;20142;-73
2023/02/21 05:47:37;;;;;;;74.97;50.05;;;10.10;99.90;;;;;;2042494;28;20070;-74
2023/02/21 05:48:37;;;;;;;76.90;51.85;;;10.00;99.90;;;;;;2044327;28;20030;-73
2023/02/21 05:49:38;;;;;;;70.75;50.28;;;10.00;99.90;;;;;;2043518;28;21000;-73
2023/02/21 05:50:38;;;;;;;75.28;49.50;;;10.00;99.90;;;;;;2036605;29;20427;-73
2023/02/21 05:51:41;;;;;;;74.57;51.03;;;10.00;99.90;;;;;;2035738;29;20028;-73
2023/02/21 05:52:42;;;;;;;74.22;51.25;;;10.00;99.90;;;;;;2042950;29;20063;-73
2023/02/21 05:53:43;;;;;;;78.68;50.85;;;10.00;99.90;;;;;;2043752;28;20034;-73
2023/02/21 05:54:43;;;;;;;69.55;49.45;;;10.00;99.90;;;;;;2043244;28;20130;-73
2023/02/21 05:55:44;;;;;;;75.65;52.17;;;10.00;99.90;;;;;;2043688;28;20406;-73
2023/02/21 05:56:46;;;;;;;79.63;50.88;;;10.00;99.90;;;;;;2044994;28;20063;-73
2023/02/21 05:57:47;;;;;;;69.88;49.45;;;10.10;99.90;;;;;;2043728;28;20051;-73
2023/02/21 05:58:48;;;;;;;80.40;51.38;;;10.10;99.90;;;;;;2041258;28;20989;-73
2023/02/21 05:59:48;;;;;;;79.47;50.58;;;10.00;99.90;;;;;;2042696;28;20028;-73
2023/02/21 06:00:50;;;;;;;74.25;50.25;;;10.10;99.90;;;;;;2045434;28;20027;-73
2023/02/21 06:01:51;;;;;;;79.70;51.92;;;10.10;99.90;;;;;;2044234;28;20118;-73
2023/02/21 06:02:51;;;;;;;82.10;53.92;;;10.00;99.90;;;;;;2045898;28;20015;-73
2023/02/21 06:03:52;;;;;;;78.22;51.10;;;10.10;99.90;;;;;;2043680;28;20083;-73
2023/02/21 06:04:52;;;;;;;84.93;52.15;;;10.00;99.90;;;;;;2043716;29;20036;-73
2023/02/21 06:05:53;;;;;;;79.45;53.13;;;10.00;99.90;;;;;;2045008;28;20046;-74
2023/02/21 06:06:53;;;;;;;77.50;51.80;;;10.00;99.90;;;;;;2045634;28;20031;-73
2023/02/21 06:07:54;;;;;;;81.72;52.92;;;10.00;99.90;;;;;;2043309;28;20319;-73
2023/02/21 06:08:54;;;;;;;82.53;53.15;;;10.00;99.90;;;;;;2044170;29;20438;-73
2023/02/21 06:09:55;;;;;;;88.50;52.30;;;10.00;99.90;;;;;;2044853;28;20031;-73
2023/02/21 06:10:56;;;;;;;79.85;53.10;;;10.00;99.90;;;;;;2043997;28;20495;-73
2023/02/21 06:11:57;;;;;;;82.40;53.10;;;10.10;99.90;;;;;;2044803;28;20065;-73
2023/02/21 06:12:57;;;;;;;79.05;51.70;;;10.10;99.90;;;;;;2045050;28;20055;-73
2023/02/21 06:14:02;;;;;;;78.70;52.15;;;10.10;99.90;;;;;;2044344;28;20039;-73
2023/02/21 06:15:06;;;;;;;74.53;49.97;;;10.10;99.90;;;;;;2044930;28;20031;-73
2023/02/21 06:16:07;;;;;;;76.13;50.53;;;10.10;99.90;;;;;;2044248;28;20027;-73
2023/02/21 06:17:07;;;;;;;81.55;51.85;;;10.10;99.90;;;;;;2046858;29;20027;-73
2023/02/21 06:18:08;;;;;;;76.32;49.00;;;10.10;99.90;;;;;;2044940;28;20031;-73
2023/02/21 06:19:09;;;;;;;80.78;52.20;;;10.10;99.90;;;;;;2045339;28;20126;-73
2023/02/21 06:20:13;;;;;;;78.82;51.17;;;10.10;99.90;;;;;;2045341;28;20027;-73
2023/02/21 06:21:14;;;;;;;81.72;53.35;;;10.10;99.90;;;;;;2044573;28;20049;-73
2023/02/21 06:22:14;;;;;;;83.70;52.63;;;10.10;99.90;;;;;;2045723;28;20042;-73
2023/02/21 06:23:15;;;;;;;84.80;53.22;;;10.10;99.90;;;;;;2041481;28;20027;-73
2023/02/21 06:24:15;;;;;;;83.22;53.13;;;10.10;99.90;;;;;;2045956;28;20192;-73
2023/02/21 06:25:16;;;;;;;81.95;51.08;;;10.10;99.90;;;;;;2044906;29;20042;-73
2023/02/21 06:26:18;;;;;;;80.25;52.28;;;10.10;99.90;;;;;;2043675;28;20181;-73
2023/02/21 06:27:18;;;;;;;81.15;52.33;;;10.10;99.90;;;;;;2045802;28;20035;-73
2023/02/21 06:28:19;;;;;;;82.97;51.83;;;10.10;99.90;;;;;;2045786;28;20122;-73
2023/02/21 06:29:19;;;;;;;81.53;52.22;;;10.10;99.90;;;;;;2046532;28;20035;-73
2023/02/21 06:30:20;;;;;;;76.65;51.38;;;10.00;99.90;;;;;;2044582;28;20075;-73
2023/02/21 06:31:21;;;;;;;84.20;51.67;;;10.00;99.90;;;;;;2046426;28;20027;-73
2023/02/21 06:32:21;;;;;;;82.53;52.50;;;10.00;99.90;;;;;;2046317;29;20034;-73
2023/02/21 06:33:22;;;;;;;82.85;53.22;;;10.00;99.90;;;;;;2037118;29;20048;-73
2023/02/21 06:34:23;;;;;;;81.68;51.15;;;10.00;99.90;;;;;;2035458;29;20095;-74
2023/02/21 06:35:23;;;;;;;81.82;52.13;;;10.00;99.90;;;;;;2035770;29;20078;-73
2023/02/21 06:36:26;;;;;;;80.47;52.53;;;10.00;99.90;;;;;;2037818;29;20035;-74
2023/02/21 06:37:27;;;;;;;83.03;50.72;;;10.00;99.90;;;;;;2045291;28;20039;-73
2023/02/21 06:38:28;;;;;;;80.18;50.50;;;10.00;99.90;;;;;;2043230;29;20111;-73
2023/02/21 06:39:28;;;;;;;75.43;49.92;;;10.00;99.90;;;;;;2043459;28;20511;-73
2023/02/21 06:40:29;;;;;;;81.65;51.75;;;10.00;99.90;;;;;;2044538;28;20834;-73
2023/02/21 06:41:30;;;;;;;80.72;51.65;;;10.00;99.90;;;;;;2043040;28;20035;-73
2023/02/21 06:42:31;;;;;;;81.18;51.05;;;10.00;99.90;;;;;;2043186;29;20391;-73
2023/02/21 06:43:33;;;;;;;80.07;51.60;;;10.00;99.90;;;;;;2044052;28;20027;-73
2023/02/21 06:44:33;;;;;;;77.63;49.42;;;10.00;99.90;;;;;;2044137;28;20026;-73
2023/02/21 06:45:34;;;;;;;80.60;50.55;;;10.00;99.90;;;;;;2044156;28;20027;-73
2023/02/21 06:46:36;;;;;;;78.38;51.15;;;10.00;99.90;;;;;;2043597;28;20024;-73
2023/02/21 06:47:37;;;;;;;82.20;51.55;;;10.00;99.90;;;;;;2045371;28;20019;-73
2023/02/21 06:48:37;;;;;;;78.35;49.42;;;10.00;99.90;;;;;;2043566;28;20042;-73
2023/02/21 06:49:38;;;;;;;79.13;51.85;;;10.00;99.90;;;;;;2044368;28;20025;-73
2023/02/21 06:50:38;;;;;;;83.80;51.42;;;10.00;99.90;;;;;;2036962;29;20035;-73
2023/02/21 06:51:41;;;;;;;87.75;52.95;;;10.00;99.90;;;;;;2038003;29;20044;-73
2023/02/21 06:52:42;;;;;;;87.50;53.72;;;10.00;99.90;;;;;;2042720;28;20028;-73
2023/02/21 06:53:43;;;;;;;84.53;50.38;;;10.00;99.90;;;;;;2045563;28;20031;-73
2023/02/21 06:54:44;;;;;;;90.90;53.63;;;10.00;99.90;;;;;;2044752;28;20046;-73
2023/02/21 06:55:45;;;;;;;84.65;52.10;;;10.00;99.90;;;;;;2043589;28;20046;-73
2023/02/21 06:56:45;;;;;;;83.50;52.08;;;10.00;99.90;;;;;;2044135;28;20044;-73
2023/02/21 06:57:46;;;;;;;81.88;51.33;;;10.00;99.90;;;;;;2045393;28;20032;-73
2023/02/21 06:58:47;;;;;;;83.10;52.83;;;10.00;99.90;;;;;;2043923;28;20023;-73
2023/02/21 06:59:47;;;;;;;88.85;55.95;;;10.00;99.90;;;;;;2044657;28;20028;-73
2023/02/21 07:00:48;;;;;;;88.25;51.75;;;10.00;99.90;;;;;;2043044;29;20107;-74
2023/02/21 07:01:48;;;;;;;86.60;53.08;;;10.00;99.90;;;;;;2044698;28;20034;-73
2023/02/21 07:02:49;;;;;;;84.53;52.55;;;10.00;99.90;;;;;;2045413;28;20028;-73
2023/02/21 07:03:50;;;;;;;89.53;53.92;;;10.00;99.90;;;;;;2045801;28;20494;-73
2023/02/21 07:04:51;;;;;;;88.72;53.67;;;10.00;99.90;;;;;;2044853;28;20031;-73
2023/02/21 07:05:51;;;;;;;87.25;54.58;;;10.00;99.90;;;;;;2044379;28;20035;-73
2023/02/21 07:06:52;;;;;;;87.45;53.95;;;10.00;99.90;;;;;;2045910;28;20396;-73
2023/02/21 07:07:52;;;;;;;84.70;52.47;;;10.00;99.90;;;;;;2043189;28;20587;-73
2023/02/21 07:08:53;;;;;;;81.60;52.50;;;10.00;99.90;;;;;;2033156;29;20115;-73
2023/02/21 07:09:53;;;;;;;89.32;53.58;;;10.00;99.90;;;;;;2036427;29;20023;-73
2023/02/21 07:10:54;;;;;;;84.20;52.97;;;10.00;99.90;;;;;;2045731;28;20448;-73
2023/02/21 07:11:54;;;;;;;83.78;53.58;;;10.00;99.90;;;;;;2045251;28;20023;-73
2023/02/21 07:12:56;;;;;;;87.10;53.33;;;10.00;99.90;;;;;;2045257;29;20023;-73
2023/02/21 07:13:58;;;;;;;86.03;54.47;;;10.00;99.90;;;;;;2043953;28;20031;-73
2023/02/21 07:14:58;;;;;;;87.63;51.25;;;9.90;99.90;;;;;;2043803;28;20015;-73
2023/02/21 07:16:00;;;;;;;83.85;50.80;;;9.90;99.90;;;;;;2043936;28;20023;-73
2023/02/21 07:17:00;;;;;;;83.18;50.90;;;9.90;99.90;;;;;;2044964;28;20051;-73
2023/02/21 07:18:01;;;;;;;86.68;52.20;;;9.90;99.90;;;;;;2043819;28;20499;-73
2023/02/21 07:19:01;;;;;;;86.97;50.38;;;10.00;99.90;;;;;;2044466;28;20016;-73
2023/02/21 07:20:03;;;;;;;81.57;52.22;;;10.00;99.90;;;;;;2043441;28;20028;-73
2023/02/21 07:21:04;;;;;;;86.00;50.05;;;10.00;99.90;;;;;;2045132;28;20019;-73
2023/02/21 07:22:04;;;;;;;84.45;51.05;;;10.00;99.90;;;;;;2044714;28;20054;-73
2023/02/21 07:23:05;;;;;;;86.47;50.53;;;9.90;99.90;;;;;;2036417;29;20035;-73
2023/02/21 07:24:05;;;;;;;81.03;49.67;;;9.90;99.90;;;;;;2035790;29;20024;-73
2023/02/21 07:25:06;;;;;;;82.13;51.55;;;10.00;99.90;;;;;;2043366;28;20035;-73
2023/02/21 07:26:07;;;;;;;80.93;49.80;;;9.90;99.90;;;;;;2043959;28;20081;-73
2023/02/21 07:27:07;;;;;;;77.97;49.63;;;10.00;99.90;;;;;;2044532;28;20024;-73
2023/02/21 07:28:08;;;;;;;84.28;49.90;;;9.90;99.90;;;;;;2042195;28;20066;-73
2023/02/21 07:29:08;;;;;;;82.18;49.97;;;10.00;99.90;;;;;;2044290;28;20035;-73
2023/02/21 07:30:11;;;;;;;79.63;49.72;;;10.00;99.90;;;;;;2044345;29;20460;-73
2023/02/21 07:31:11;;;;;;;82.55;50.55;;;10.00;99.90;;;;;;2045989;28;20038;-73
2023/02/21 07:32:12;;;;;;;77.97;48.95;;;10.00;99.90;;;;;;2044343;28;20039;-73
2023/02/21 07:33:12;;;;;;;80.40;50.78;;;10.00;99.90;;;;;;2045739;28;20027;-73
2023/02/21 07:34:14;;;;;;;76.22;48.78;;;10.00;99.90;;;;;;2044964;28;20372;-73
2023/02/21 07:35:14;;;;;;;80.30;49.10;;;10.00;99.90;;;;;;2043683;29;20027;-73
2023/02/21 07:36:15;;;;;;;80.40;49.17;;;10.00;99.90;;;;;;2043631;28;20062;-73
2023/02/21 07:37:15;;;;;;;87.55;49.83;;;10.00;99.90;;;;;;2044124;28;20428;-73